createdAt,value
2023-06-04T00:00:27.893Z,8.38
2023-06-04T00:02:54.397Z,8.41
2023-06-04T00:05:22.652Z,8.54
2023-06-04T00:07:51.665Z,8.44
2023-06-04T00:10:18.360Z,8.55
2023-06-04T00:12:45.145Z,8.54
2023-06-04T00:15:11.854Z,8.45
2023-06-04T00:17:38.425Z,8.45
2023-06-04T00:20:05.253Z,8.52
2023-06-04T00:22:31.736Z,8.57
2023-06-04T00:24:58.084Z,8.62
2023-06-04T00:27:24.506Z,8.50
2023-06-04T00:29:52.319Z,8.47
2023-06-04T00:32:19.111Z,8.50
2023-06-04T00:34:52.384Z,8.39
2023-06-04T00:37:18.838Z,8.36
2023-06-04T00:39:45.201Z,8.26
2023-06-04T00:42:11.889Z,8.27
2023-06-04T00:44:38.338Z,8.33
2023-06-04T00:47:05.075Z,8.32
2023-06-04T00:49:31.623Z,8.38
2023-06-04T00:51:58.319Z,8.35
2023-06-04T00:54:25.505Z,8.35
2023-06-04T00:56:51.897Z,8.25
2023-06-04T00:59:18.518Z,8.08
2023-06-04T01:02:00.750Z,8.01
2023-06-04T01:04:33.772Z,7.93
2023-06-04T01:07:03.898Z,7.84
2023-06-04T01:09:31.769Z,7.89
2023-06-04T01:11:59.625Z,7.88
2023-06-04T01:14:27.196Z,7.87
2023-06-04T01:17:09.712Z,8.03
2023-06-04T01:20:00.824Z,8.11
2023-06-04T01:22:33.603Z,7.92
2023-06-04T01:25:05.624Z,7.81
2023-06-04T01:27:33.874Z,7.70
2023-06-04T01:30:01.548Z,7.56
2023-06-04T01:32:28.824Z,7.57
2023-06-04T01:34:55.423Z,7.60
2023-06-04T01:37:21.840Z,7.58
2023-06-04T01:39:48.427Z,7.59
2023-06-04T01:42:15.158Z,7.64
2023-06-04T01:44:42.209Z,7.62
2023-06-04T01:47:08.880Z,7.46
2023-06-04T01:49:35.450Z,7.49
2023-06-04T01:52:01.764Z,7.40
2023-06-04T01:54:28.514Z,7.57
2023-06-04T01:56:54.837Z,7.64
2023-06-04T01:59:22.270Z,7.43
2023-06-04T02:01:48.998Z,7.53
2023-06-04T02:04:15.365Z,7.50
2023-06-04T02:06:41.988Z,7.43
2023-06-04T02:09:08.344Z,7.37
2023-06-04T02:11:34.714Z,7.45
2023-06-04T02:14:01.247Z,7.47
2023-06-04T02:16:27.841Z,7.38
2023-06-04T02:18:54.312Z,7.46
2023-06-04T02:21:21.056Z,7.42
2023-06-04T02:23:47.629Z,7.34
2023-06-04T02:26:14.130Z,7.27
2023-06-04T02:28:40.848Z,7.22
2023-06-04T02:31:07.798Z,7.21
2023-06-04T02:33:34.374Z,7.43
2023-06-04T02:36:01.488Z,7.35
2023-06-04T02:38:28.002Z,7.34
2023-06-04T02:40:54.342Z,7.21
2023-06-04T02:43:20.980Z,7.14
2023-06-04T02:45:47.461Z,7.04
2023-06-04T02:48:14.042Z,7.13
2023-06-04T02:50:43.554Z,7.19
2023-06-04T02:53:09.929Z,7.18
2023-06-04T02:55:37.066Z,7.02
2023-06-04T02:58:03.887Z,7.14
2023-06-04T03:00:30.407Z,7.07
2023-06-04T03:03:03.080Z,6.93
2023-06-04T03:05:33.184Z,6.79
2023-06-04T03:08:03.353Z,6.86
2023-06-04T03:10:30.774Z,6.87
2023-06-04T03:12:57.342Z,6.89
2023-06-04T03:15:24.040Z,6.90
2023-06-04T03:17:52.711Z,6.80
2023-06-04T03:20:19.286Z,6.80
2023-06-04T03:22:45.762Z,6.77
2023-06-04T03:25:12.527Z,6.84
2023-06-04T03:27:39.162Z,6.82
2023-06-04T03:30:06.432Z,6.64
2023-06-04T03:32:33.638Z,6.72
2023-06-04T03:35:01.429Z,6.81
2023-06-04T03:37:28.181Z,6.67
2023-06-04T03:39:54.730Z,6.54
2023-06-04T03:42:21.446Z,6.49
2023-06-04T03:44:47.899Z,6.60
2023-06-04T03:47:14.388Z,6.77
2023-06-04T03:49:41.312Z,6.85
2023-06-04T03:52:07.635Z,6.94
2023-06-04T03:54:33.950Z,7.03
2023-06-04T03:57:01.341Z,7.13
2023-06-04T03:59:27.903Z,7.09
2023-06-04T04:01:54.331Z,7.08
2023-06-04T04:04:20.820Z,7.38
2023-06-04T04:06:47.214Z,7.23
2023-06-04T04:09:13.545Z,7.20
2023-06-04T04:11:40.527Z,7.17
2023-06-04T04:14:07.148Z,7.27
2023-06-04T04:16:33.590Z,7.22
2023-06-04T04:19:00.111Z,7.25
2023-06-04T04:21:26.521Z,7.30
2023-06-04T04:23:53.191Z,7.23
2023-06-04T04:26:19.927Z,7.28
2023-06-04T04:28:46.558Z,7.44
2023-06-04T04:31:13.189Z,7.59
2023-06-04T04:33:41.763Z,7.61
2023-06-04T04:36:13.936Z,7.84
2023-06-04T04:38:41.205Z,7.98
2023-06-04T04:41:09.480Z,8.08
2023-06-04T04:43:39.004Z,8.27
2023-06-04T04:46:06.532Z,8.14
2023-06-04T04:48:33.378Z,8.27
2023-06-04T04:51:00.378Z,8.49
2023-06-04T04:53:27.646Z,8.78
2023-06-04T04:55:54.297Z,8.97
2023-06-04T04:58:21.014Z,9.18
2023-06-04T05:00:48.911Z,9.41
2023-06-04T05:03:15.612Z,9.77
2023-06-04T05:05:42.103Z,10.08
2023-06-04T05:08:09.841Z,10.34
2023-06-04T05:10:37.358Z,10.66
2023-06-04T05:13:03.861Z,10.62
2023-06-04T05:15:30.665Z,10.97
2023-06-04T05:17:57.651Z,11.24
2023-06-04T05:20:24.397Z,11.56
2023-06-04T05:22:50.980Z,11.85
2023-06-04T05:25:17.708Z,12.09
2023-06-04T05:27:44.298Z,12.10
2023-06-04T05:30:12.157Z,12.21
2023-06-04T05:32:42.410Z,12.19
2023-06-04T05:35:09.839Z,11.94
2023-06-04T05:37:39.090Z,12.16
2023-06-04T05:40:06.602Z,12.13
2023-06-04T05:42:33.634Z,12.20
2023-06-04T05:45:00.270Z,12.23
2023-06-04T05:47:29.925Z,12.40
2023-06-04T05:49:57.179Z,12.39
2023-06-04T05:52:24.171Z,12.47
2023-06-04T05:54:51.152Z,12.61
2023-06-04T05:57:17.516Z,12.76
2023-06-04T05:59:44.196Z,13.10
2023-06-04T06:02:10.638Z,13.09
2023-06-04T06:04:37.557Z,13.10
2023-06-04T06:07:04.419Z,13.26
2023-06-04T06:09:30.883Z,13.37
2023-06-04T06:11:57.398Z,13.27
2023-06-04T06:14:25.091Z,13.11
2023-06-04T06:16:52.236Z,13.46
2023-06-04T06:19:19.742Z,13.28
2023-06-04T06:21:46.278Z,13.42
2023-06-04T06:24:15.262Z,13.72
2023-06-04T06:26:42.321Z,13.89
2023-06-04T06:29:08.645Z,13.86
2023-06-04T06:31:35.533Z,13.85
2023-06-04T06:34:01.969Z,14.10
2023-06-04T06:36:29.635Z,14.32
2023-06-04T06:38:56.328Z,14.05
2023-06-04T06:41:22.738Z,14.02
2023-06-04T06:43:49.460Z,14.41
2023-06-04T06:46:16.141Z,14.69
2023-06-04T06:48:46.598Z,14.74
2023-06-04T06:51:13.507Z,14.37
2023-06-04T06:53:40.532Z,14.58
2023-06-04T06:56:07.664Z,14.67
2023-06-04T06:58:34.061Z,14.86
2023-06-04T07:01:01.026Z,15.08
2023-06-04T07:03:27.524Z,14.93
2023-06-04T07:05:54.700Z,14.64
2023-06-04T07:08:22.246Z,14.49
2023-06-04T07:10:48.686Z,14.56
2023-06-04T07:13:15.328Z,14.92
2023-06-04T07:15:42.069Z,15.06
2023-06-04T07:18:08.995Z,15.28
2023-06-04T07:20:35.451Z,15.27
2023-06-04T07:23:02.446Z,14.94
2023-06-04T07:25:28.923Z,15.17
2023-06-04T07:27:59.204Z,15.12
2023-06-04T07:30:26.682Z,15.29
2023-06-04T07:32:53.941Z,15.72
2023-06-04T07:35:22.848Z,15.65
2023-06-04T07:37:50.533Z,15.67
2023-06-04T07:40:17.867Z,15.98
2023-06-04T07:42:50.925Z,15.79
2023-06-04T07:45:17.652Z,15.79
2023-06-04T07:47:45.005Z,15.81
2023-06-04T07:50:11.617Z,15.94
2023-06-04T07:52:38.558Z,15.75
2023-06-04T07:55:06.165Z,16.03
2023-06-04T07:57:33.063Z,16.16
2023-06-04T08:00:00.296Z,16.23
2023-06-04T08:02:27.109Z,16.34
2023-06-04T08:04:53.701Z,15.65
2023-06-04T08:07:20.202Z,15.81
2023-06-04T08:09:46.703Z,15.98
2023-06-04T08:12:13.150Z,16.18
2023-06-04T08:14:39.778Z,16.36
2023-06-04T08:17:06.141Z,16.62
2023-06-04T08:19:38.382Z,16.87
2023-06-04T08:22:05.064Z,16.63
2023-06-04T08:24:31.594Z,16.74
2023-06-04T08:26:57.970Z,17.00
2023-06-04T08:29:24.577Z,16.97
2023-06-04T08:31:51.645Z,16.80
2023-06-04T08:34:18.304Z,16.77
2023-06-04T08:36:45.290Z,16.95
2023-06-04T08:39:12.517Z,17.40
2023-06-04T08:41:50.301Z,16.88
2023-06-04T08:44:18.276Z,16.81
2023-06-04T08:46:45.903Z,16.97
2023-06-04T08:49:14.731Z,17.23
2023-06-04T08:51:41.779Z,17.47
2023-06-04T08:54:09.756Z,16.93
2023-06-04T08:56:37.448Z,16.99
2023-06-04T08:59:09.379Z,17.13
2023-06-04T09:01:39.416Z,17.11
2023-06-04T09:04:09.948Z,17.30
2023-06-04T09:06:40.027Z,17.06
2023-06-04T09:09:11.236Z,17.29
2023-06-04T09:11:45.825Z,17.64
2023-06-04T09:14:17.670Z,17.62
2023-06-04T09:16:52.114Z,17.49
2023-06-04T09:19:20.565Z,17.43
2023-06-04T09:21:52.575Z,17.29
2023-06-04T09:24:26.057Z,17.54
2023-06-04T09:26:53.048Z,18.03
2023-06-04T09:29:19.890Z,17.64
2023-06-04T09:31:48.675Z,17.81
2023-06-04T09:34:16.218Z,18.30
2023-06-04T09:36:43.045Z,18.17
2023-06-04T09:39:18.958Z,18.09
2023-06-04T09:41:57.449Z,17.95
2023-06-04T09:44:23.997Z,18.39
2023-06-04T09:46:57.722Z,18.08
2023-06-04T09:49:24.347Z,18.54
2023-06-04T09:51:51.700Z,18.88
2023-06-04T09:54:18.439Z,18.96
2023-06-04T09:56:45.005Z,19.04
2023-06-04T09:59:11.662Z,18.87
2023-06-04T10:01:42.639Z,18.69
2023-06-04T10:04:12.721Z,18.95
2023-06-04T10:06:40.430Z,18.95
2023-06-04T10:09:11.079Z,18.96
2023-06-04T10:11:57.915Z,18.80
2023-06-04T10:14:28.586Z,18.89
2023-06-04T10:16:58.011Z,19.26
2023-06-04T10:19:25.216Z,19.03
2023-06-04T10:21:51.750Z,19.21
2023-06-04T10:24:18.727Z,19.49
2023-06-04T10:26:45.247Z,19.27
2023-06-04T10:29:14.547Z,18.76
2023-06-04T10:31:42.431Z,18.93
2023-06-04T10:34:08.997Z,18.81
2023-06-04T10:36:44.962Z,19.01
2023-06-04T10:39:11.809Z,19.19
2023-06-04T10:41:38.384Z,18.64
2023-06-04T10:44:04.827Z,18.69
2023-06-04T10:46:42.103Z,18.85
2023-06-04T10:49:12.750Z,18.86
2023-06-04T10:51:39.121Z,19.01
2023-06-04T10:54:05.819Z,18.94
2023-06-04T10:56:36.069Z,18.48
2023-06-04T10:59:15.389Z,19.08
2023-06-04T11:01:41.934Z,18.98
2023-06-04T11:04:25.200Z,19.65
2023-06-04T11:07:04.695Z,19.91
2023-06-04T11:09:34.839Z,19.99
2023-06-04T11:12:01.919Z,19.99
2023-06-04T11:14:28.563Z,20.18
2023-06-04T11:16:55.116Z,19.94
2023-06-04T11:19:21.752Z,20.07
2023-06-04T11:21:49.196Z,20.29
2023-06-04T11:24:16.974Z,20.14
2023-06-04T11:26:48.258Z,20.36
2023-06-04T11:29:20.415Z,20.52
2023-06-04T11:31:48.903Z,20.41
2023-06-04T11:34:29.143Z,20.25
2023-06-04T11:36:56.036Z,20.15
2023-06-04T11:39:23.878Z,20.31
2023-06-04T11:41:52.249Z,20.62
2023-06-04T11:44:22.743Z,20.52
2023-06-04T11:46:50.035Z,20.27
2023-06-04T11:49:17.652Z,20.30
2023-06-04T11:51:51.630Z,20.56
2023-06-04T11:54:19.659Z,19.78
2023-06-04T11:56:47.447Z,19.84
2023-06-04T11:59:16.005Z,19.52
2023-06-04T12:01:44.508Z,19.72
2023-06-04T12:04:15.188Z,20.21
2023-06-04T12:07:03.548Z,20.73
2023-06-04T12:09:40.955Z,20.84
2023-06-04T12:12:08.781Z,20.47
2023-06-04T12:14:35.584Z,20.30
2023-06-04T12:17:07.033Z,20.36
2023-06-04T12:19:34.749Z,20.35
2023-06-04T12:22:08.456Z,20.82
2023-06-04T12:24:46.861Z,21.01
2023-06-04T12:27:13.739Z,21.04
2023-06-04T12:29:40.803Z,20.71
2023-06-04T12:32:11.327Z,20.91
2023-06-04T12:34:39.820Z,20.88
2023-06-04T12:37:07.031Z,21.13
2023-06-04T12:39:37.969Z,20.24
2023-06-04T12:42:07.937Z,20.34
2023-06-04T12:44:36.016Z,20.85
2023-06-04T12:47:03.121Z,21.13
2023-06-04T12:49:29.818Z,20.92
2023-06-04T12:51:56.692Z,20.38
2023-06-04T12:54:23.047Z,20.30
2023-06-04T12:56:50.153Z,20.43
2023-06-04T12:59:16.918Z,20.55
2023-06-04T13:01:43.525Z,21.14
2023-06-04T13:04:10.252Z,21.56
2023-06-04T13:06:38.199Z,21.54
2023-06-04T13:09:10.268Z,21.31
2023-06-04T13:11:41.283Z,21.18
2023-06-04T13:14:08.622Z,20.89
2023-06-04T13:16:35.081Z,20.97
2023-06-04T13:19:01.484Z,20.58
2023-06-04T13:21:28.139Z,21.05
2023-06-04T13:23:54.838Z,21.20
2023-06-04T13:26:21.428Z,20.39
2023-06-04T13:28:48.212Z,20.49
2023-06-04T13:31:15.104Z,20.84
2023-06-04T13:33:42.474Z,20.99
2023-06-04T13:36:08.890Z,21.21
2023-06-04T13:38:35.560Z,21.14
2023-06-04T13:41:02.053Z,20.91
2023-06-04T13:43:28.845Z,20.92
2023-06-04T13:45:55.381Z,20.90
2023-06-04T13:48:21.883Z,21.25
2023-06-04T13:50:48.213Z,21.34
2023-06-04T13:53:14.607Z,21.81
2023-06-04T13:55:41.178Z,21.42
2023-06-04T13:58:07.667Z,21.33
2023-06-04T14:00:34.922Z,21.39
2023-06-04T14:03:01.470Z,20.85
2023-06-04T14:05:30.931Z,20.69
2023-06-04T14:07:57.582Z,20.86
2023-06-04T14:10:23.982Z,21.05
2023-06-04T14:12:51.113Z,20.91
2023-06-04T14:15:18.072Z,20.82
2023-06-04T14:17:44.936Z,20.79
2023-06-04T14:20:11.445Z,21.00
2023-06-04T14:22:38.471Z,20.65
2023-06-04T14:25:07.373Z,20.96
2023-06-04T14:27:35.375Z,20.51
2023-06-04T14:30:05.912Z,20.83
2023-06-04T14:32:34.898Z,21.07
2023-06-04T14:35:01.530Z,21.15
2023-06-04T14:37:28.266Z,20.99
2023-06-04T14:39:54.908Z,21.20
2023-06-04T14:42:21.467Z,21.25
2023-06-04T14:44:47.859Z,21.00
2023-06-04T14:47:14.220Z,21.02
2023-06-04T14:49:40.617Z,21.17
2023-06-04T14:52:07.320Z,20.83
2023-06-04T14:54:34.969Z,21.02
2023-06-04T14:57:01.996Z,21.60
2023-06-04T14:59:29.161Z,21.38
2023-06-04T15:01:56.206Z,21.19
2023-06-04T15:04:23.628Z,21.27
2023-06-04T15:06:50.833Z,21.49
2023-06-04T15:09:17.527Z,21.41
2023-06-04T15:11:44.094Z,21.27
2023-06-04T15:14:10.704Z,21.02
2023-06-04T15:16:37.242Z,20.60
2023-06-04T15:19:04.202Z,20.57
2023-06-04T15:21:30.884Z,20.60
2023-06-04T15:23:57.296Z,20.81
2023-06-04T15:26:25.808Z,20.85
2023-06-04T15:28:52.138Z,20.93
2023-06-04T15:31:18.823Z,20.80
2023-06-04T15:33:45.452Z,20.55
2023-06-04T15:36:12.119Z,20.58
2023-06-04T15:38:38.534Z,20.54
2023-06-04T15:41:04.914Z,20.63
2023-06-04T15:43:31.528Z,20.43
2023-06-04T15:45:58.236Z,20.44
2023-06-04T15:48:27.543Z,20.40
2023-06-04T15:50:54.106Z,20.52
2023-06-04T15:53:20.708Z,20.54
2023-06-04T15:55:47.184Z,20.57
2023-06-04T15:58:13.831Z,20.18
2023-06-04T16:00:44.399Z,20.26
2023-06-04T16:03:11.017Z,20.29
2023-06-04T16:05:37.485Z,20.42
2023-06-04T16:08:04.553Z,20.14
2023-06-04T16:10:30.994Z,19.97
2023-06-04T16:12:57.383Z,20.08
2023-06-04T16:15:23.778Z,20.24
2023-06-04T16:17:50.334Z,20.38
2023-06-04T16:20:17.306Z,20.35
2023-06-04T16:22:44.026Z,20.35
2023-06-04T16:25:10.573Z,20.25
2023-06-04T16:27:36.962Z,20.23
2023-06-04T16:30:05.827Z,20.36
2023-06-04T16:32:32.428Z,19.92
2023-06-04T16:35:00.487Z,19.85
2023-06-04T16:37:27.450Z,19.72
2023-06-04T16:39:54.037Z,19.73
2023-06-04T16:42:20.371Z,19.71
2023-06-04T16:44:47.200Z,19.80
2023-06-04T16:47:13.641Z,19.83
2023-06-04T16:49:40.271Z,19.67
2023-06-04T16:52:08.361Z,19.69
2023-06-04T16:54:35.596Z,19.78
2023-06-04T16:57:02.271Z,19.65
2023-06-04T16:59:31.299Z,19.63
2023-06-04T17:01:58.258Z,19.54
2023-06-04T17:04:25.082Z,19.64
2023-06-04T17:06:51.590Z,19.84
2023-06-04T17:09:18.025Z,19.71
2023-06-04T17:11:44.730Z,19.67
2023-06-04T17:14:11.299Z,19.60
2023-06-04T17:16:37.765Z,19.33
2023-06-04T17:19:04.384Z,19.40
2023-06-04T17:21:31.097Z,19.50
2023-06-04T17:24:00.712Z,19.65
2023-06-04T17:26:30.234Z,20.10
2023-06-04T17:28:56.755Z,20.18
2023-06-04T17:31:24.510Z,20.66
2023-06-04T17:33:51.697Z,20.49
2023-06-04T17:36:20.784Z,20.58
2023-06-04T17:38:50.840Z,20.72
2023-06-04T17:41:17.505Z,20.84
2023-06-04T17:43:43.890Z,20.57
2023-06-04T17:46:11.064Z,21.01
2023-06-04T17:48:38.116Z,20.38
2023-06-04T17:51:07.625Z,20.29
2023-06-04T17:53:34.238Z,20.10
2023-06-04T17:56:00.693Z,20.42
2023-06-04T17:58:27.161Z,19.91
2023-06-04T18:00:53.595Z,19.68
2023-06-04T18:03:19.957Z,19.57
2023-06-04T18:05:46.345Z,19.51
2023-06-04T18:08:12.867Z,19.89
2023-06-04T18:10:39.980Z,20.04
2023-06-04T18:13:06.895Z,19.76
2023-06-04T18:15:33.507Z,19.68
2023-06-04T18:18:01.501Z,19.41
2023-06-04T18:20:28.047Z,19.15
2023-06-04T18:22:54.455Z,18.79
2023-06-04T18:25:23.216Z,18.57
2023-06-04T18:27:49.712Z,18.00
2023-06-04T18:30:17.552Z,17.76
2023-06-04T18:32:46.037Z,17.90
2023-06-04T18:35:14.724Z,18.09
2023-06-04T18:37:42.776Z,18.20
2023-06-04T18:40:12.321Z,18.10
2023-06-04T18:42:39.806Z,17.87
2023-06-04T18:45:10.061Z,17.67
2023-06-04T18:47:37.554Z,17.57
2023-06-04T18:50:04.485Z,17.52
2023-06-04T18:52:33.891Z,17.49
2023-06-04T18:55:03.968Z,17.54
2023-06-04T18:57:30.484Z,17.44
2023-06-04T18:59:56.852Z,17.30
2023-06-04T19:02:23.603Z,17.20
2023-06-04T19:04:50.910Z,17.25
2023-06-04T19:07:17.464Z,17.23
2023-06-04T19:09:43.859Z,17.19
2023-06-04T19:12:10.364Z,17.13
2023-06-04T19:14:38.215Z,17.01
2023-06-04T19:17:05.017Z,17.11
2023-06-04T19:19:31.501Z,16.97
2023-06-04T19:21:59.156Z,16.82
2023-06-04T19:24:25.870Z,16.79
2023-06-04T19:26:52.300Z,16.81
2023-06-04T19:29:19.542Z,16.66
2023-06-04T19:31:46.789Z,16.63
2023-06-04T19:34:13.438Z,16.46
2023-06-04T19:36:40.178Z,16.48
2023-06-04T19:39:07.736Z,16.47
2023-06-04T19:41:34.399Z,16.46
2023-06-04T19:44:00.890Z,16.37
2023-06-04T19:46:27.589Z,16.34
2023-06-04T19:48:54.135Z,16.20
2023-06-04T19:51:21.988Z,15.99
2023-06-04T19:53:48.478Z,15.94
2023-06-04T19:56:15.012Z,16.03
2023-06-04T19:58:41.926Z,15.87
2023-06-04T20:01:08.996Z,15.80
2023-06-04T20:03:35.793Z,15.72
2023-06-04T20:06:02.693Z,15.58
2023-06-04T20:08:29.225Z,15.54
2023-06-04T20:10:56.577Z,15.47
2023-06-04T20:13:23.227Z,15.41
2023-06-04T20:15:49.673Z,15.34
2023-06-04T20:18:16.395Z,15.20
2023-06-04T20:20:43.010Z,15.00
2023-06-04T20:23:09.363Z,15.04
2023-06-04T20:25:36.161Z,15.10
2023-06-04T20:28:02.523Z,14.96
2023-06-04T20:30:28.909Z,14.77
2023-06-04T20:32:55.820Z,14.88
2023-06-04T20:35:22.224Z,14.72
2023-06-04T20:37:49.003Z,14.68
2023-06-04T20:40:17.159Z,14.74
2023-06-04T20:42:43.524Z,14.56
2023-06-04T20:45:10.185Z,14.45
2023-06-04T20:47:36.665Z,14.32
2023-06-04T20:50:03.496Z,14.19
2023-06-04T20:52:29.956Z,14.12
2023-06-04T20:54:56.537Z,14.05
2023-06-04T20:57:22.902Z,14.12
2023-06-04T20:59:49.304Z,13.96
2023-06-04T21:02:16.052Z,13.81
2023-06-04T21:04:42.715Z,13.58
2023-06-04T21:07:09.271Z,13.53
2023-06-04T21:09:35.887Z,13.41
2023-06-04T21:12:02.374Z,13.45
2023-06-04T21:14:28.733Z,13.54
2023-06-04T21:16:55.168Z,13.45
2023-06-04T21:19:21.525Z,13.34
2023-06-04T21:21:47.910Z,13.21
2023-06-04T21:24:15.302Z,13.25
2023-06-04T21:26:41.814Z,13.19
2023-06-04T21:29:08.390Z,13.07
2023-06-04T21:31:35.315Z,12.99
2023-06-04T21:34:01.949Z,12.91
2023-06-04T21:36:28.568Z,12.78
2023-06-04T21:38:54.892Z,12.60
2023-06-04T21:41:21.475Z,12.69
2023-06-04T21:43:47.823Z,12.73
2023-06-04T21:46:14.963Z,12.81
2023-06-04T21:48:44.585Z,12.78
2023-06-04T21:51:11.200Z,12.79
2023-06-04T21:53:37.759Z,12.76
2023-06-04T21:56:04.494Z,12.75
2023-06-04T21:58:30.970Z,12.50
2023-06-04T22:00:57.508Z,12.49
2023-06-04T22:03:24.507Z,12.50
2023-06-04T22:05:51.110Z,12.54
2023-06-04T22:08:17.785Z,12.62
2023-06-04T22:10:44.359Z,12.70
2023-06-04T22:13:11.233Z,12.86
2023-06-04T22:15:37.855Z,12.82
2023-06-04T22:18:04.467Z,12.72
2023-06-04T22:20:31.194Z,12.50
2023-06-04T22:22:57.900Z,12.44
2023-06-04T22:25:24.427Z,12.49
2023-06-04T22:27:50.883Z,12.50
2023-06-04T22:30:17.590Z,12.45
2023-06-04T22:32:44.039Z,12.27
2023-06-04T22:35:10.447Z,12.14
2023-06-04T22:37:36.991Z,12.19
2023-06-04T22:40:03.951Z,12.04
2023-06-04T22:42:30.567Z,11.94
2023-06-04T22:44:57.342Z,11.79
2023-06-04T22:47:24.166Z,11.77
2023-06-04T22:49:50.702Z,11.80
2023-06-04T22:52:17.263Z,11.83
2023-06-04T22:54:43.831Z,11.81
2023-06-04T22:57:10.511Z,11.78
2023-06-04T22:59:36.839Z,11.81
2023-06-04T23:02:03.786Z,11.83
2023-06-04T23:04:31.217Z,11.69
2023-06-04T23:06:57.787Z,11.60
2023-06-04T23:09:24.384Z,11.52
2023-06-04T23:11:51.519Z,11.44
2023-06-04T23:14:18.162Z,11.46
2023-06-04T23:16:44.668Z,11.37
2023-06-04T23:19:11.162Z,11.34
2023-06-04T23:21:40.148Z,11.51
2023-06-04T23:24:08.177Z,11.35
2023-06-04T23:26:34.674Z,11.39
2023-06-04T23:29:01.095Z,11.47
2023-06-04T23:31:27.525Z,11.33
2023-06-04T23:33:53.967Z,11.22
2023-06-04T23:36:20.349Z,11.17
2023-06-04T23:38:48.117Z,11.20
2023-06-04T23:41:14.609Z,11.00
2023-06-04T23:43:40.996Z,11.09
2023-06-04T23:46:07.329Z,11.15
2023-06-04T23:48:33.910Z,10.98
2023-06-04T23:51:00.871Z,10.98
2023-06-04T23:53:27.283Z,10.90
2023-06-04T23:55:53.873Z,10.90
2023-06-04T23:58:20.272Z,10.87
